CYSQ weather

Atlin Airport
Atlin, British Columbia, Canada

Public forecast

Using degrees Celsius for public forecast. Weather courtesy of forecast.io.

METAR (pilot weather report)

Closest report is Teslin Airport, 45.4 nm (84.0 km) NE. Retrieved 2019/05/19 17:00 UTC (51 minutes ago):

CYZW 191700Z 28003KT 30SM FEW050 FEW095 SCT220 09/02 A2984 RMK CU1AC2CI1 CU TR SLP126

TAF (pilot weather forecast)

Forecast is more than 12 hours old.

Closest forecast is Teslin Airport, 45.4 nm (84.0 km) NE. Retrieved 2019/05/18 18:00 UTC (24 hours ago):

TAF CYZW 181741Z 1818/1824 VRB03KT P6SM FEW020 BKN040 FM182100 18006KT P6SM SCT060 RMK NXT FCST WILL BE ISSUED AT 191745Z